createdAt,value
2023-03-01T00:01:23.386Z,18.15
2023-03-01T00:03:51.346Z,19.67
2023-03-01T00:06:19.758Z,19.08
2023-03-01T00:08:46.865Z,18.15
2023-03-01T00:11:24.110Z,18.60
2023-03-01T00:13:54.467Z,18.67
2023-03-01T00:16:35.471Z,18.67
2023-03-01T00:19:03.564Z,18.58
2023-03-01T00:21:30.576Z,20.75
2023-03-01T00:23:58.455Z,19.48
2023-03-01T00:26:27.046Z,19.45
2023-03-01T00:28:56.294Z,17.63
2023-03-01T00:31:26.338Z,19.58
2023-03-01T00:33:58.910Z,17.92
2023-03-01T00:36:30.499Z,18.85
2023-03-01T00:38:58.038Z,18.42
2023-03-01T00:41:27.469Z,18.52
2023-03-01T00:43:55.246Z,19.65
2023-03-01T00:46:25.958Z,19.67
2023-03-01T00:48:52.816Z,20.23
2023-03-01T00:51:29.000Z,19.17
2023-03-01T00:53:59.060Z,18.48
2023-03-01T00:56:26.584Z,19.23
2023-03-01T00:58:53.541Z,20.00
2023-03-01T01:01:24.596Z,19.80
2023-03-01T01:03:55.616Z,19.17
2023-03-01T01:06:33.071Z,19.90
2023-03-01T01:09:00.907Z,19.67
2023-03-01T01:11:31.054Z,19.27
2023-03-01T01:13:59.536Z,20.90
2023-03-01T01:16:29.400Z,20.83
2023-03-01T01:18:57.635Z,20.45
2023-03-01T01:21:25.993Z,20.25
2023-03-01T01:23:53.972Z,20.50
2023-03-01T01:26:31.269Z,19.45
2023-03-01T01:28:59.510Z,21.60
2023-03-01T01:31:27.879Z,22.13
2023-03-01T01:33:56.381Z,21.45
2023-03-01T01:36:23.836Z,21.35
2023-03-01T01:38:50.628Z,21.02
2023-03-01T01:41:18.994Z,21.10
2023-03-01T01:43:50.840Z,21.02
2023-03-01T01:46:34.894Z,16.63
2023-03-01T01:49:06.894Z,21.92
2023-03-01T01:51:43.607Z,22.13
2023-03-01T01:54:19.517Z,22.85
2023-03-01T01:56:54.514Z,22.45
2023-03-01T01:59:25.441Z,22.35
2023-03-01T02:01:53.985Z,22.10
2023-03-01T02:04:21.709Z,23.13
2023-03-01T02:07:22.744Z,23.88
2023-03-01T02:09:53.344Z,22.27
2023-03-01T02:12:25.060Z,23.02
2023-03-01T02:14:51.922Z,22.77
2023-03-01T02:17:20.560Z,22.70
2023-03-01T02:23:02.295Z,23.20
2023-03-01T02:25:45.138Z,23.65
2023-03-01T02:28:15.222Z,23.38
2023-03-01T02:31:03.846Z,23.92
2023-03-01T02:33:33.926Z,22.35
2023-03-01T02:36:06.229Z,22.40
2023-03-01T02:38:33.773Z,22.13
2023-03-01T02:41:03.384Z,23.17
2023-03-01T02:43:33.775Z,22.58
2023-03-01T02:46:14.628Z,23.25
2023-03-01T02:48:48.770Z,23.33
2023-03-01T02:51:34.277Z,23.15
2023-03-01T02:54:23.518Z,23.02
2023-03-01T02:56:50.941Z,24.45
2023-03-01T02:59:25.974Z,24.05
2023-03-01T03:01:52.758Z,23.67
2023-03-01T03:04:21.838Z,24.40
2023-03-01T03:06:51.183Z,23.73
2023-03-01T03:09:19.835Z,23.85
2023-03-01T03:11:47.192Z,22.80
2023-03-01T03:14:17.521Z,23.55
2023-03-01T03:16:47.984Z,23.45
2023-03-01T03:19:15.433Z,23.65
2023-03-01T03:21:42.242Z,22.73
2023-03-01T03:24:09.313Z,23.58
2023-03-01T03:26:36.143Z,24.17
2023-03-01T03:29:03.228Z,22.80
2023-03-01T03:31:30.069Z,23.55
2023-03-01T03:33:57.690Z,23.35
2023-03-01T03:36:25.622Z,24.48
2023-03-01T03:38:52.550Z,23.73
2023-03-01T03:41:19.607Z,23.00
2023-03-01T03:43:46.581Z,24.00
2023-03-01T03:46:13.897Z,23.60
2023-03-01T03:48:45.081Z,24.27
2023-03-01T03:51:17.832Z,23.38
2023-03-01T03:53:45.747Z,23.17
2023-03-01T03:56:13.662Z,22.77
2023-03-01T03:58:40.786Z,22.42
2023-03-01T04:01:07.846Z,25.33
2023-03-01T04:03:35.979Z,24.35
2023-03-01T04:06:04.968Z,24.55
2023-03-01T04:08:31.839Z,24.90
2023-03-01T04:11:22.446Z,24.52
2023-03-01T04:13:49.799Z,24.23
2023-03-01T04:16:17.166Z,24.67
2023-03-01T04:18:44.585Z,22.58
2023-03-01T04:21:12.209Z,24.55
2023-03-01T04:23:41.649Z,25.02
2023-03-01T04:26:09.131Z,24.90
2023-03-01T04:28:41.030Z,24.98
2023-03-01T04:31:19.362Z,25.43
2023-03-01T04:33:55.464Z,23.85
2023-03-01T04:36:26.881Z,24.63
2023-03-01T04:38:53.906Z,24.90
2023-03-01T04:41:23.852Z,24.23
2023-03-01T04:43:50.961Z,25.27
2023-03-01T04:46:21.663Z,26.58
2023-03-01T04:48:49.277Z,26.85
2023-03-01T04:51:18.081Z,26.33
2023-03-01T04:53:46.257Z,26.60
2023-03-01T04:56:15.003Z,26.00
2023-03-01T04:58:42.369Z,26.10
2023-03-01T05:01:18.269Z,26.38
2023-03-01T05:03:48.429Z,26.52
2023-03-01T05:06:17.784Z,25.67
2023-03-01T05:08:44.898Z,25.45
2023-03-01T05:11:12.686Z,25.67
2023-03-01T05:13:40.600Z,27.05
2023-03-01T05:16:12.147Z,27.20
2023-03-01T05:18:40.322Z,22.40
2023-03-01T05:21:09.899Z,25.52
2023-03-01T05:23:37.296Z,26.60
2023-03-01T05:26:09.473Z,25.92
2023-03-01T05:28:38.911Z,25.60
2023-03-01T05:31:10.592Z,24.90
2023-03-01T05:33:39.727Z,26.27
2023-03-01T05:36:11.929Z,26.98
2023-03-01T05:38:40.460Z,26.30
2023-03-01T05:41:17.985Z,27.05
2023-03-01T05:43:46.682Z,27.10
2023-03-01T05:46:16.742Z,26.55
2023-03-01T05:48:43.881Z,27.52
2023-03-01T05:51:11.657Z,26.83
2023-03-01T05:53:38.431Z,27.10
2023-03-01T05:56:07.363Z,28.13
2023-03-01T05:58:34.283Z,27.40
2023-03-01T06:01:01.687Z,28.50
2023-03-01T06:03:29.123Z,28.80
2023-03-01T06:06:00.981Z,28.00
2023-03-01T06:08:28.542Z,29.48
2023-03-01T06:10:55.802Z,26.95
2023-03-01T06:13:24.653Z,29.08
2023-03-01T06:15:51.777Z,26.98
2023-03-01T06:18:18.665Z,28.98
2023-03-01T06:20:45.420Z,29.42
2023-03-01T06:23:12.494Z,27.77
2023-03-01T06:25:39.260Z,28.80
2023-03-01T06:28:07.257Z,26.30
2023-03-01T06:30:35.190Z,28.42
2023-03-01T06:33:04.082Z,28.85
2023-03-01T06:35:33.116Z,28.42
2023-03-01T06:38:03.270Z,27.15
2023-03-01T06:40:32.165Z,28.92
2023-03-01T06:43:00.788Z,27.95
2023-03-01T06:45:28.756Z,29.80
2023-03-01T06:48:07.061Z,30.88
2023-03-01T06:50:35.607Z,27.45
2023-03-01T06:53:03.452Z,27.65
2023-03-01T06:55:31.376Z,27.70
2023-03-01T06:58:00.230Z,28.40
2023-03-01T07:00:28.573Z,29.42
2023-03-01T07:02:59.887Z,29.00
2023-03-01T07:05:30.088Z,30.08
2023-03-01T07:07:57.974Z,29.30
2023-03-01T07:10:25.111Z,29.02
2023-03-01T07:12:56.751Z,29.52
2023-03-01T07:15:23.836Z,28.90
2023-03-01T07:17:51.722Z,28.08
2023-03-01T07:20:25.560Z,29.55
2023-03-01T07:22:54.257Z,28.95
2023-03-01T07:25:21.173Z,28.65
2023-03-01T07:27:56.327Z,28.50
2023-03-01T07:30:27.128Z,28.30
2023-03-01T07:32:56.433Z,29.45
2023-03-01T07:35:26.489Z,28.45
2023-03-01T07:37:54.102Z,28.80
2023-03-01T07:40:22.169Z,28.50
2023-03-01T07:42:49.933Z,29.17
2023-03-01T07:45:19.562Z,28.45
2023-03-01T07:47:46.772Z,29.70
2023-03-01T07:50:14.679Z,28.38
2023-03-01T07:52:42.361Z,27.73
2023-03-01T07:55:10.524Z,27.50
2023-03-01T07:57:37.829Z,28.63
2023-03-01T08:00:06.371Z,27.55
2023-03-01T08:02:34.293Z,26.20
2023-03-01T08:05:01.099Z,28.00
2023-03-01T08:07:28.955Z,28.77
2023-03-01T08:09:56.055Z,28.58
2023-03-01T08:12:24.222Z,27.90
2023-03-01T08:14:52.416Z,27.35
2023-03-01T08:17:19.386Z,30.15
2023-03-01T08:19:47.732Z,29.58
2023-03-01T08:22:15.649Z,29.48
2023-03-01T08:24:43.576Z,27.48
2023-03-01T08:27:10.899Z,28.15
2023-03-01T08:29:37.698Z,29.90
2023-03-01T08:32:06.382Z,28.75
2023-03-01T08:34:36.390Z,28.95
2023-03-01T08:37:05.928Z,27.75
2023-03-01T08:39:33.782Z,28.75
2023-03-01T08:42:02.011Z,29.42
2023-03-01T08:44:28.857Z,28.65
2023-03-01T08:46:56.619Z,29.85
2023-03-01T08:49:23.532Z,29.30
2023-03-01T08:51:51.619Z,28.83
2023-03-01T08:54:22.452Z,29.55
2023-03-01T08:56:50.150Z,27.70
2023-03-01T08:59:18.757Z,29.02
2023-03-01T09:01:46.390Z,27.98
2023-03-01T09:04:15.638Z,27.25
2023-03-01T09:06:43.020Z,27.92
2023-03-01T09:09:19.087Z,28.90
2023-03-01T09:11:47.590Z,27.38
2023-03-01T09:14:15.661Z,27.65
2023-03-01T09:16:43.392Z,27.63
2023-03-01T09:19:10.441Z,26.70
2023-03-01T09:21:41.005Z,26.88
2023-03-01T09:24:14.817Z,27.17
2023-03-01T09:26:41.974Z,27.35
2023-03-01T09:29:10.439Z,27.77
2023-03-01T09:31:37.530Z,26.25
2023-03-01T09:34:05.405Z,27.48
2023-03-01T09:36:34.449Z,26.33
2023-03-01T09:39:03.200Z,26.67
2023-03-01T09:41:47.019Z,27.40
2023-03-01T09:44:35.013Z,28.33
2023-03-01T09:47:04.933Z,27.00
2023-03-01T09:49:36.500Z,27.50
2023-03-01T09:52:24.850Z,27.63
2023-03-01T09:54:59.359Z,26.45
2023-03-01T09:57:51.156Z,26.45
2023-03-01T10:00:38.823Z,27.75
2023-03-01T10:03:18.201Z,27.67
2023-03-01T10:06:27.597Z,25.75
2023-03-01T10:09:19.136Z,26.13
2023-03-01T10:11:57.118Z,26.50
2023-03-01T10:15:01.507Z,26.27
2023-03-01T10:17:48.310Z,23.60
2023-03-01T10:20:22.119Z,24.65
2023-03-01T10:22:54.260Z,25.48
2023-03-01T10:25:38.262Z,25.75
2023-03-01T10:29:03.981Z,23.13
2023-03-01T10:31:50.044Z,23.83
2023-03-01T10:34:27.999Z,21.52
2023-03-01T10:37:02.521Z,22.67
2023-03-01T10:39:30.166Z,22.98
2023-03-01T10:42:06.178Z,22.75
2023-03-01T10:44:49.079Z,23.15
2023-03-01T10:47:23.413Z,22.48
2023-03-01T10:50:07.283Z,21.27
2023-03-01T10:52:37.978Z,20.75
2023-03-01T10:55:14.682Z,22.02
2023-03-01T10:57:43.039Z,20.80
2023-03-01T11:00:26.424Z,21.90
2023-03-01T11:06:14.323Z,20.38
2023-03-01T11:08:50.213Z,21.00
2023-03-01T11:11:43.456Z,21.33
2023-03-01T11:14:26.861Z,20.83
2023-03-01T11:17:20.951Z,19.85
2023-03-01T11:20:14.924Z,19.67
2023-03-01T11:22:55.114Z,19.80
2023-03-01T11:25:30.692Z,19.98
2023-03-01T11:27:59.800Z,20.13
2023-03-01T11:30:38.550Z,21.45
2023-03-01T11:33:44.567Z,20.70
2023-03-01T11:36:31.329Z,20.67
2023-03-01T11:39:09.317Z,20.50
2023-03-01T11:41:38.604Z,20.17
2023-03-01T11:44:20.074Z,19.95
2023-03-01T11:47:30.896Z,20.10
2023-03-01T11:50:09.763Z,19.10
2023-03-01T11:53:09.826Z,20.13
2023-03-01T11:56:13.002Z,19.95
2023-03-01T11:59:05.635Z,20.13
2023-03-01T12:02:18.542Z,19.67
2023-03-01T12:05:17.059Z,18.08
2023-03-01T12:08:21.468Z,19.08
2023-03-01T12:11:35.253Z,20.05
2023-03-01T12:14:55.114Z,18.63
2023-03-01T12:17:50.458Z,19.58
2023-03-01T12:20:30.903Z,19.63
2023-03-01T12:23:19.922Z,18.67
2023-03-01T12:26:03.826Z,20.05
2023-03-01T12:31:27.659Z,19.08
2023-03-01T12:37:13.652Z,18.95
2023-03-01T12:40:22.241Z,19.33
2023-03-01T12:43:12.260Z,20.60
2023-03-01T12:45:49.930Z,20.20
2023-03-01T12:48:38.133Z,17.98
2023-03-01T12:51:11.973Z,18.25
2023-03-01T12:53:50.832Z,18.83
2023-03-01T12:56:28.484Z,18.95
2023-03-01T12:59:23.485Z,18.10
2023-03-01T13:02:06.377Z,18.45
2023-03-01T13:05:24.597Z,17.83
2023-03-01T13:08:16.349Z,18.45
2023-03-01T13:11:01.034Z,18.77
2023-03-01T13:13:30.239Z,17.80
2023-03-01T13:15:58.861Z,17.52
2023-03-01T13:18:26.758Z,19.75
2023-03-01T13:21:02.072Z,18.35
2023-03-01T13:23:39.018Z,20.08
2023-03-01T13:26:12.836Z,20.15
2023-03-01T13:28:45.787Z,19.98
2023-03-01T13:31:19.695Z,17.98
2023-03-01T13:33:53.037Z,18.80
2023-03-01T13:36:29.596Z,18.42
2023-03-01T13:39:00.288Z,18.48
2023-03-01T13:41:42.461Z,18.58
2023-03-01T13:44:33.792Z,18.70
2023-03-01T13:47:18.408Z,18.20
2023-03-01T13:50:00.615Z,19.50
2023-03-01T13:52:51.009Z,18.70
2023-03-01T13:55:40.098Z,18.90
2023-03-01T13:58:32.252Z,19.50
2023-03-01T14:01:07.833Z,19.33
2023-03-01T14:03:43.721Z,17.42
2023-03-01T14:06:21.644Z,19.98
2023-03-01T14:08:52.644Z,18.65
2023-03-01T14:11:50.773Z,20.05
2023-03-01T14:14:46.333Z,20.83
2023-03-01T14:17:33.127Z,19.63
2023-03-01T14:20:14.153Z,19.50
2023-03-01T14:22:43.741Z,19.85
2023-03-01T14:25:39.936Z,20.23
2023-03-01T14:28:30.795Z,19.40
2023-03-01T14:31:01.616Z,19.10
2023-03-01T14:33:37.436Z,17.15
2023-03-01T14:36:14.687Z,19.55
2023-03-01T14:38:49.562Z,18.55
2023-03-01T14:41:25.384Z,18.98
2023-03-01T14:44:02.077Z,18.80
2023-03-01T14:46:42.057Z,19.40
2023-03-01T14:49:19.756Z,19.02
2023-03-01T14:52:09.408Z,18.63
2023-03-01T14:54:49.951Z,18.60
2023-03-01T14:57:23.473Z,19.02
2023-03-01T14:59:55.871Z,19.17
2023-03-01T15:02:26.769Z,19.20
2023-03-01T15:04:58.756Z,18.67
2023-03-01T15:07:42.918Z,20.23
2023-03-01T15:10:23.344Z,18.98
2023-03-01T15:12:53.440Z,25.55
2023-03-01T15:15:48.011Z,20.20
2023-03-01T15:18:17.510Z,19.15
2023-03-01T15:20:46.202Z,19.02
2023-03-01T15:23:28.106Z,19.42
2023-03-01T15:25:59.253Z,18.20
2023-03-01T15:28:35.858Z,18.60
2023-03-01T15:31:17.866Z,19.58
2023-03-01T15:33:48.422Z,18.70
2023-03-01T15:36:51.553Z,20.25
2023-03-01T15:39:39.548Z,16.95
2023-03-01T15:42:28.452Z,22.95
2023-03-01T15:45:15.856Z,22.77
2023-03-01T15:47:52.120Z,23.73
2023-03-01T15:50:36.959Z,22.38
2023-03-01T15:53:13.099Z,22.85
2023-03-01T15:55:39.984Z,22.40
2023-03-01T15:58:19.909Z,23.60
2023-03-01T16:01:00.429Z,22.40
2023-03-01T16:03:28.159Z,22.42
2023-03-01T16:05:55.302Z,21.67
2023-03-01T16:08:22.118Z,23.30
2023-03-01T16:10:52.225Z,25.55
2023-03-01T16:13:20.498Z,33.58
2023-03-01T16:15:48.052Z,22.48
2023-03-01T16:18:15.413Z,23.08
2023-03-01T16:20:42.376Z,21.92
2023-03-01T16:23:11.914Z,21.40
2023-03-01T16:25:39.011Z,21.85
2023-03-01T16:28:10.046Z,21.33
2023-03-01T16:30:40.475Z,21.75
2023-03-01T16:33:24.443Z,21.20
2023-03-01T16:35:54.754Z,21.27
2023-03-01T16:38:21.763Z,21.98
2023-03-01T16:40:51.550Z,21.15
2023-03-01T16:43:18.490Z,24.00
2023-03-01T16:45:47.639Z,22.20
2023-03-01T16:48:15.627Z,22.98
2023-03-01T16:50:44.384Z,20.02
2023-03-01T16:53:12.164Z,18.45
2023-03-01T16:55:46.152Z,22.20
2023-03-01T16:58:13.730Z,21.88
2023-03-01T17:00:40.535Z,23.88
2023-03-01T17:03:07.480Z,23.42
2023-03-01T17:05:34.317Z,24.45
2023-03-01T17:08:01.636Z,22.58
2023-03-01T17:10:29.976Z,22.58
2023-03-01T17:12:57.001Z,24.98
2023-03-01T17:15:24.809Z,23.45
2023-03-01T17:17:53.524Z,23.20
2023-03-01T17:20:20.798Z,23.15
2023-03-01T17:22:47.655Z,21.48
2023-03-01T17:25:16.108Z,23.33
2023-03-01T17:27:43.006Z,22.55
2023-03-01T17:30:12.871Z,22.52
2023-03-01T17:32:40.512Z,22.02
2023-03-01T17:35:09.093Z,23.38
2023-03-01T17:37:38.455Z,23.10
2023-03-01T17:40:07.536Z,22.35
2023-03-01T17:42:35.652Z,23.10
2023-03-01T17:45:03.548Z,21.90
2023-03-01T17:47:30.300Z,22.48
2023-03-01T17:49:58.325Z,22.88
2023-03-01T17:52:25.184Z,21.83
2023-03-01T17:54:51.945Z,22.10
2023-03-01T17:57:18.799Z,20.80
2023-03-01T17:59:46.506Z,20.63
2023-03-01T18:02:14.490Z,21.88
2023-03-01T18:04:42.741Z,22.13
2023-03-01T18:07:09.532Z,22.50
2023-03-01T18:09:36.410Z,25.08
2023-03-01T18:12:03.679Z,22.85
2023-03-01T18:14:34.471Z,21.40
2023-03-01T18:17:04.572Z,24.33
2023-03-01T18:19:31.541Z,22.77
2023-03-01T18:21:58.529Z,25.02
2023-03-01T18:24:27.053Z,22.30
2023-03-01T18:26:54.168Z,21.35
2023-03-01T18:29:21.128Z,22.85
2023-03-01T18:31:49.304Z,23.42
2023-03-01T18:34:16.649Z,26.90
2023-03-01T18:36:47.954Z,24.10
2023-03-01T18:39:24.423Z,22.75
2023-03-01T18:41:52.644Z,23.48
2023-03-01T18:44:20.656Z,24.55
2023-03-01T18:46:47.967Z,24.67
2023-03-01T18:49:16.833Z,23.40
2023-03-01T18:51:45.410Z,23.92
2023-03-01T18:54:13.332Z,24.40
2023-03-01T18:56:40.454Z,26.50
2023-03-01T18:59:09.180Z,24.65
2023-03-01T19:01:37.696Z,23.77
2023-03-01T19:04:09.890Z,26.83
2023-03-01T19:06:37.485Z,25.42
2023-03-01T19:09:07.735Z,26.05
2023-03-01T19:11:35.508Z,25.85
2023-03-01T19:14:03.889Z,23.95
2023-03-01T19:16:34.001Z,24.77
2023-03-01T19:19:04.871Z,26.42
2023-03-01T19:21:33.264Z,25.77
2023-03-01T19:24:02.391Z,25.25
2023-03-01T19:26:30.749Z,24.85
2023-03-01T19:28:58.004Z,24.30
2023-03-01T19:31:30.203Z,23.60
2023-03-01T19:34:10.646Z,19.50
2023-03-01T19:36:43.250Z,24.00
2023-03-01T19:39:13.363Z,24.63
2023-03-01T19:41:40.626Z,23.48
2023-03-01T19:44:08.640Z,24.63
2023-03-01T19:46:36.278Z,23.80
2023-03-01T19:49:04.636Z,23.60
2023-03-01T19:51:38.743Z,23.65
2023-03-01T19:54:07.413Z,23.10
2023-03-01T19:56:35.112Z,23.13
2023-03-01T19:59:04.483Z,23.60
2023-03-01T20:01:35.247Z,23.30
2023-03-01T20:04:04.058Z,23.70
2023-03-01T20:06:33.323Z,25.00
2023-03-01T20:09:15.361Z,24.10
2023-03-01T20:11:49.780Z,25.92
2023-03-01T20:14:20.573Z,24.13
2023-03-01T20:16:49.196Z,23.33
2023-03-01T20:19:17.486Z,23.85
2023-03-01T20:21:44.503Z,21.40
2023-03-01T20:24:11.427Z,22.90
2023-03-01T20:26:41.149Z,22.73
2023-03-01T20:29:13.209Z,22.20
2023-03-01T20:31:42.411Z,23.70
2023-03-01T20:34:09.327Z,21.27
2023-03-01T20:36:38.347Z,23.40
2023-03-01T20:39:05.964Z,22.95
2023-03-01T20:41:33.820Z,23.83
2023-03-01T20:44:05.687Z,23.80
2023-03-01T20:46:36.674Z,22.90
2023-03-01T20:49:05.455Z,24.48
2023-03-01T20:51:33.548Z,25.23
2023-03-01T20:54:01.837Z,25.42
2023-03-01T20:56:29.534Z,25.35
2023-03-01T20:59:00.229Z,25.50
2023-03-01T21:01:28.232Z,25.60
2023-03-01T21:03:56.244Z,24.27
2023-03-01T21:06:25.001Z,24.17
2023-03-01T21:08:52.204Z,28.25
2023-03-01T21:11:20.347Z,25.70
2023-03-01T21:13:48.074Z,24.73
2023-03-01T21:16:15.554Z,25.52
2023-03-01T21:18:43.263Z,28.17
2023-03-01T21:21:15.403Z,25.35
2023-03-01T21:23:43.881Z,25.97
2023-03-01T21:26:23.147Z,25.88
2023-03-01T21:28:57.324Z,24.17
2023-03-01T21:31:29.939Z,27.05
2023-03-01T21:33:59.810Z,26.65
2023-03-01T21:36:29.152Z,23.20
2023-03-01T21:38:59.526Z,27.25
2023-03-01T21:41:30.967Z,25.08
2023-03-01T21:44:06.811Z,25.60
2023-03-01T21:46:39.152Z,26.40
2023-03-01T21:49:09.036Z,26.70
2023-03-01T21:51:37.635Z,27.33
2023-03-01T21:54:06.505Z,23.95
2023-03-01T21:56:39.490Z,27.55
2023-03-01T21:59:14.150Z,20.37
2023-03-01T22:01:42.296Z,25.67
2023-03-01T22:04:09.557Z,26.95
2023-03-01T22:06:41.016Z,26.30
2023-03-01T22:09:18.578Z,25.48
2023-03-01T22:11:50.970Z,24.60
2023-03-01T22:14:22.509Z,25.75
2023-03-01T22:16:51.422Z,27.17
2023-03-01T22:19:19.728Z,25.60
2023-03-01T22:21:51.536Z,25.67
2023-03-01T22:24:22.979Z,25.55
2023-03-01T22:26:52.674Z,28.65
2023-03-01T22:29:24.889Z,25.80
2023-03-01T22:31:53.705Z,26.73
2023-03-01T22:34:23.262Z,23.75
2023-03-01T22:36:51.158Z,27.42
2023-03-01T22:39:21.088Z,24.65
2023-03-01T22:41:50.032Z,25.20
2023-03-01T22:44:23.018Z,26.20
2023-03-01T22:49:20.255Z,26.63
2023-03-01T22:51:47.585Z,25.90
2023-03-01T22:54:16.289Z,26.92
2023-03-01T22:56:43.180Z,25.85
2023-03-01T22:59:13.485Z,25.92
2023-03-01T23:01:46.440Z,26.05
2023-03-01T23:04:15.571Z,26.63
2023-03-01T23:06:51.857Z,26.50
2023-03-01T23:09:30.132Z,24.35
2023-03-01T23:11:58.508Z,24.73
2023-03-01T23:14:28.787Z,25.77
2023-03-01T23:16:55.641Z,26.08
2023-03-01T23:19:23.161Z,25.98
2023-03-01T23:21:50.567Z,24.73
2023-03-01T23:24:21.372Z,24.40
2023-03-01T23:26:53.374Z,25.98
2023-03-01T23:29:20.816Z,25.97
2023-03-01T23:31:47.617Z,25.58
2023-03-01T23:34:14.887Z,25.55
2023-03-01T23:36:44.925Z,25.15
2023-03-01T23:39:13.675Z,27.10
2023-03-01T23:41:40.583Z,25.90
2023-03-01T23:44:07.429Z,26.45
2023-03-01T23:46:37.405Z,25.73
2023-03-01T23:49:04.595Z,26.48
2023-03-01T23:51:31.446Z,26.52
2023-03-01T23:54:01.811Z,25.58
2023-03-01T23:56:35.922Z,26.33
2023-03-01T23:59:10.236Z,27.13
